createdAt,value
2018-10-16T00:00:09.126Z,91.40
2018-10-16T00:02:37.608Z,91.40
2018-10-16T00:05:06.310Z,91.40
2018-10-16T00:07:34.786Z,91.50
2018-10-16T00:10:03.344Z,91.40
2018-10-16T00:12:31.850Z,91.40
2018-10-16T00:15:01.963Z,91.60
2018-10-16T00:17:30.378Z,91.80
2018-10-16T00:19:58.916Z,91.70
2018-10-16T00:22:27.408Z,91.40
2018-10-16T00:24:55.931Z,91.40
2018-10-16T00:27:24.386Z,91.20
2018-10-16T00:29:52.880Z,91.20
2018-10-16T00:32:21.362Z,91.30
2018-10-16T00:34:49.830Z,91.40
2018-10-16T00:37:18.297Z,91.20
2018-10-16T00:39:46.780Z,91.00
2018-10-16T00:42:15.318Z,91.10
2018-10-16T00:44:43.741Z,91.50
2018-10-16T00:47:12.195Z,90.70
2018-10-16T00:49:40.675Z,91.00
2018-10-16T00:52:09.129Z,90.80
2018-10-16T00:54:37.636Z,90.90
2018-10-16T00:57:06.194Z,91.00
2018-10-16T00:59:34.677Z,91.10
2018-10-16T01:02:03.143Z,91.30
2018-10-16T01:04:31.602Z,91.40
2018-10-16T01:07:00.099Z,91.30
2018-10-16T01:09:28.612Z,90.90
2018-10-16T01:11:57.066Z,90.80
2018-10-16T01:14:25.573Z,91.10
2018-10-16T01:16:54.045Z,91.40
2018-10-16T01:19:22.809Z,92.00
2018-10-16T01:21:51.317Z,92.50
2018-10-16T01:24:19.901Z,92.10
2018-10-16T01:26:48.384Z,92.30
2018-10-16T01:29:16.860Z,92.50
2018-10-16T01:31:45.317Z,92.20
2018-10-16T01:34:13.868Z,91.90
2018-10-16T01:36:42.335Z,91.60
2018-10-16T01:39:10.861Z,91.60
2018-10-16T01:41:39.316Z,91.90
2018-10-16T01:44:07.776Z,92.00
2018-10-16T01:46:36.263Z,92.40
2018-10-16T01:49:05.155Z,92.30
2018-10-16T01:51:33.615Z,92.70
2018-10-16T01:54:02.051Z,91.90
2018-10-16T01:56:30.531Z,92.20
2018-10-16T01:58:59.027Z,91.80
2018-10-16T02:01:27.521Z,91.60
2018-10-16T02:03:56.005Z,91.60
2018-10-16T02:06:24.597Z,91.70
2018-10-16T02:08:53.043Z,91.70
2018-10-16T02:11:21.566Z,91.70
2018-10-16T02:13:50.047Z,91.70
2018-10-16T02:16:18.517Z,91.50
2018-10-16T02:18:46.974Z,91.50
2018-10-16T02:21:15.420Z,91.50
2018-10-16T02:23:43.884Z,91.40
2018-10-16T02:26:12.378Z,91.40
2018-10-16T02:28:40.844Z,91.30
2018-10-16T02:31:09.287Z,91.30
2018-10-16T02:33:37.809Z,91.50
2018-10-16T02:36:06.298Z,91.50
2018-10-16T02:38:35.370Z,91.20
2018-10-16T02:41:03.863Z,91.20
2018-10-16T02:43:32.319Z,91.40
2018-10-16T02:46:00.794Z,92.00
2018-10-16T02:48:29.276Z,92.00
2018-10-16T02:50:57.754Z,91.80
2018-10-16T02:53:26.238Z,91.60
2018-10-16T02:55:54.718Z,91.50
2018-10-16T02:58:23.317Z,91.30
2018-10-16T03:00:51.816Z,91.20
2018-10-16T03:03:20.258Z,91.10
2018-10-16T03:05:48.706Z,91.40
2018-10-16T03:08:17.165Z,91.30
2018-10-16T03:10:45.654Z,91.50
2018-10-16T03:13:14.138Z,91.60
2018-10-16T03:15:42.641Z,92.10
2018-10-16T03:18:11.100Z,91.90
2018-10-16T03:20:39.662Z,91.70
2018-10-16T03:23:08.045Z,91.90
2018-10-16T03:25:36.500Z,92.00
2018-10-16T03:28:05.322Z,91.50
2018-10-16T03:30:40.270Z,91.60
2018-10-16T03:33:08.773Z,91.60
2018-10-16T03:35:37.346Z,91.50
2018-10-16T03:38:05.894Z,91.70
2018-10-16T03:40:34.351Z,91.90
2018-10-16T03:43:02.836Z,91.80
2018-10-16T03:45:31.323Z,91.60
2018-10-16T03:47:59.786Z,91.60
2018-10-16T03:50:28.310Z,91.90
2018-10-16T03:52:56.788Z,92.10
2018-10-16T03:55:25.253Z,92.10
2018-10-16T03:57:53.713Z,91.90
2018-10-16T04:00:22.173Z,92.00
2018-10-16T04:02:50.646Z,92.20
2018-10-16T04:05:19.099Z,92.70
2018-10-16T04:07:47.579Z,92.30
2018-10-16T04:10:16.042Z,92.00
2018-10-16T04:12:44.517Z,91.90
2018-10-16T04:15:12.985Z,91.90
2018-10-16T04:17:41.894Z,91.90
2018-10-16T04:20:10.398Z,91.70
2018-10-16T04:22:39.125Z,91.60
2018-10-16T04:25:08.051Z,91.50
2018-10-16T04:27:36.586Z,91.70
2018-10-16T04:30:05.870Z,91.90
2018-10-16T04:32:34.321Z,91.80
2018-10-16T04:35:02.866Z,91.70
2018-10-16T04:37:31.326Z,91.80
2018-10-16T04:39:59.786Z,92.20
2018-10-16T04:42:28.246Z,92.20
2018-10-16T04:44:56.770Z,92.20
2018-10-16T04:47:25.210Z,92.00
2018-10-16T04:49:53.706Z,91.70
2018-10-16T04:52:22.170Z,91.60
2018-10-16T04:54:50.673Z,91.70
2018-10-16T04:57:19.155Z,92.20
2018-10-16T04:59:47.602Z,91.60
2018-10-16T05:02:16.154Z,91.80
2018-10-16T05:04:44.678Z,92.00
2018-10-16T05:07:13.196Z,91.50
2018-10-16T05:09:41.662Z,91.80
2018-10-16T05:12:10.170Z,91.80
2018-10-16T05:17:10.318Z,91.90
2018-10-16T05:19:38.803Z,91.90
2018-10-16T05:22:07.299Z,91.50
2018-10-16T05:24:35.750Z,91.70
2018-10-16T05:27:04.451Z,91.40
2018-10-16T05:29:33.029Z,91.10
2018-10-16T05:32:01.513Z,99.90
2018-10-16T05:34:29.992Z,91.20
2018-10-16T05:36:58.452Z,90.10
2018-10-16T05:39:26.928Z,90.20
2018-10-16T05:41:55.378Z,90.10
2018-10-16T05:44:23.917Z,90.90
2018-10-16T05:46:52.395Z,91.30
2018-10-16T05:49:20.887Z,91.40
2018-10-16T05:51:49.355Z,91.50
2018-10-16T05:54:18.489Z,91.40
2018-10-16T05:56:47.834Z,91.70
2018-10-16T05:59:16.318Z,91.40
2018-10-16T06:01:44.870Z,91.20
2018-10-16T06:04:13.349Z,91.10
2018-10-16T06:06:41.829Z,90.80
2018-10-16T06:09:10.337Z,90.60
2018-10-16T06:11:38.800Z,90.60
2018-10-16T06:14:07.273Z,90.30
2018-10-16T06:16:35.752Z,90.00
2018-10-16T06:19:04.263Z,90.00
2018-10-16T06:21:32.759Z,90.10
2018-10-16T06:24:01.259Z,90.00
2018-10-16T06:26:29.770Z,90.20
2018-10-16T06:28:58.177Z,90.10
2018-10-16T06:31:26.659Z,90.20
2018-10-16T06:33:55.167Z,90.20
2018-10-16T06:36:23.653Z,89.80
2018-10-16T06:38:52.098Z,89.30
2018-10-16T06:41:20.642Z,89.40
2018-10-16T06:43:49.105Z,89.40
2018-10-16T06:46:17.691Z,89.60
2018-10-16T06:48:46.537Z,89.20
2018-10-16T06:51:14.675Z,89.00
2018-10-16T06:53:43.356Z,88.60
2018-10-16T06:56:11.798Z,88.20
2018-10-16T06:58:40.246Z,87.60
2018-10-16T07:01:08.700Z,87.50
2018-10-16T07:03:37.153Z,87.20
2018-10-16T07:06:05.629Z,87.50
2018-10-16T07:08:34.053Z,87.30
2018-10-16T07:11:02.470Z,86.30
2018-10-16T07:13:30.933Z,86.30
2018-10-16T07:15:59.427Z,86.50
2018-10-16T07:18:27.912Z,86.10
2018-10-16T07:20:56.346Z,84.70
2018-10-16T07:23:24.905Z,84.10
2018-10-16T07:25:53.252Z,85.20
2018-10-16T07:28:21.688Z,84.10
2018-10-16T07:30:50.171Z,82.80
2018-10-16T07:33:18.612Z,81.50
2018-10-16T07:35:47.092Z,79.40
2018-10-16T07:38:15.722Z,74.40
2018-10-16T07:40:44.086Z,69.80
2018-10-16T07:43:12.544Z,65.70
2018-10-16T07:45:40.981Z,61.90
2018-10-16T07:48:09.495Z,55.20
2018-10-16T07:50:37.978Z,52.90
2018-10-16T07:53:06.619Z,50.20
2018-10-16T07:55:35.088Z,47.00
2018-10-16T07:58:03.568Z,44.70
2018-10-16T08:00:32.014Z,44.00
2018-10-16T08:03:00.452Z,43.30
2018-10-16T08:05:28.906Z,42.80
2018-10-16T08:07:57.366Z,43.20
2018-10-16T08:10:25.874Z,44.10
2018-10-16T08:12:54.408Z,43.20
2018-10-16T08:15:22.965Z,42.40
2018-10-16T08:17:51.455Z,41.80
2018-10-16T08:20:19.918Z,41.30
2018-10-16T08:22:48.362Z,39.60
2018-10-16T08:25:16.846Z,38.30
2018-10-16T08:27:45.297Z,38.00
2018-10-16T08:30:13.751Z,37.20
2018-10-16T08:32:42.244Z,35.50
2018-10-16T08:35:10.758Z,34.50
2018-10-16T08:38:05.986Z,34.70
2018-10-16T08:40:34.521Z,34.70
2018-10-16T08:43:28.572Z,34.50
2018-10-16T08:46:08.628Z,33.60
2018-10-16T08:48:48.500Z,33.50
2018-10-16T08:51:29.245Z,31.40
2018-10-16T08:53:57.723Z,32.10
2018-10-16T08:56:26.249Z,31.40
2018-10-16T08:58:54.756Z,29.80
2018-10-16T09:01:23.221Z,29.90
2018-10-16T09:03:51.734Z,29.40
2018-10-16T09:06:20.217Z,29.10
2018-10-16T09:08:48.691Z,28.50
2018-10-16T09:11:17.141Z,29.20
2018-10-16T09:13:45.655Z,29.30
2018-10-16T09:16:14.078Z,28.40
2018-10-16T09:18:42.547Z,28.60
2018-10-16T09:21:11.090Z,29.00
2018-10-16T09:23:39.616Z,27.60
2018-10-16T09:26:08.096Z,27.40
2018-10-16T09:28:36.541Z,28.40
2018-10-16T09:31:05.150Z,28.00
2018-10-16T09:33:33.609Z,27.10
2018-10-16T09:36:02.162Z,27.00
2018-10-16T09:38:30.601Z,26.90
2018-10-16T09:40:59.082Z,27.80
2018-10-16T09:43:27.555Z,25.80
2018-10-16T09:45:56.022Z,26.50
2018-10-16T09:48:24.497Z,26.10
2018-10-16T09:50:52.986Z,25.40
2018-10-16T09:53:21.441Z,26.00
2018-10-16T09:55:49.938Z,25.50
2018-10-16T09:58:18.412Z,25.90
2018-10-16T10:00:52.367Z,26.90
2018-10-16T10:03:20.883Z,27.20
2018-10-16T10:05:49.338Z,26.50
2018-10-16T10:08:17.850Z,25.50
2018-10-16T10:10:46.378Z,26.40
2018-10-16T10:13:14.775Z,27.40
2018-10-16T10:15:43.234Z,26.10
2018-10-16T10:18:11.802Z,26.00
2018-10-16T10:20:40.297Z,25.70
2018-10-16T10:23:08.829Z,25.50
2018-10-16T10:25:37.254Z,25.70
2018-10-16T10:28:05.762Z,26.00
2018-10-16T10:30:34.250Z,25.80
2018-10-16T10:33:02.742Z,25.40
2018-10-16T10:35:31.261Z,24.90
2018-10-16T10:37:59.706Z,26.10
2018-10-16T10:40:28.218Z,26.00
2018-10-16T10:42:56.694Z,25.50
2018-10-16T10:45:25.154Z,25.60
2018-10-16T10:47:53.652Z,24.80
2018-10-16T10:50:22.390Z,25.00
2018-10-16T10:52:50.683Z,25.60
2018-10-16T10:55:19.174Z,24.70
2018-10-16T10:57:47.950Z,25.50
2018-10-16T11:00:16.577Z,24.90
2018-10-16T11:02:46.620Z,23.80
2018-10-16T11:05:15.102Z,24.80
2018-10-16T11:07:43.591Z,27.20
2018-10-16T11:10:13.445Z,26.80
2018-10-16T11:12:42.938Z,26.10
2018-10-16T11:15:11.568Z,26.80
2018-10-16T11:17:40.299Z,25.90
2018-10-16T11:20:10.627Z,25.90
2018-10-16T11:22:39.170Z,25.80
2018-10-16T11:25:08.936Z,26.70
2018-10-16T11:27:37.609Z,27.20
2018-10-16T11:30:11.428Z,26.30
2018-10-16T11:32:39.974Z,26.50
2018-10-16T11:35:09.806Z,26.60
2018-10-16T11:37:38.274Z,26.10
2018-10-16T11:40:06.996Z,26.50
2018-10-16T11:42:35.504Z,25.70
2018-10-16T11:45:04.141Z,26.50
2018-10-16T11:47:32.718Z,27.10
2018-10-16T11:50:01.227Z,27.10
2018-10-16T11:52:29.750Z,26.80
2018-10-16T11:54:58.218Z,27.50
2018-10-16T11:57:26.730Z,28.10
2018-10-16T11:59:55.244Z,26.90
2018-10-16T12:02:23.907Z,26.70
2018-10-16T12:04:52.534Z,28.40
2018-10-16T12:07:20.967Z,28.40
2018-10-16T12:09:49.412Z,28.10
2018-10-16T12:12:17.902Z,28.10
2018-10-16T12:14:46.390Z,27.80
2018-10-16T12:17:20.275Z,27.70
2018-10-16T12:19:55.265Z,27.80
2018-10-16T12:22:23.784Z,27.60
2018-10-16T12:24:52.324Z,27.60
2018-10-16T12:27:20.818Z,27.90
2018-10-16T12:29:49.249Z,28.70
2018-10-16T12:32:17.780Z,28.70
2018-10-16T12:34:46.214Z,30.00
2018-10-16T12:37:14.739Z,29.40
2018-10-16T12:39:43.178Z,30.20
2018-10-16T12:42:11.729Z,31.20
2018-10-16T12:44:40.144Z,33.30
2018-10-16T12:47:08.723Z,36.20
2018-10-16T12:49:37.119Z,35.70
2018-10-16T12:52:05.703Z,36.50
2018-10-16T12:54:34.185Z,37.70
2018-10-16T12:57:02.853Z,37.70
2018-10-16T12:59:31.213Z,36.60
2018-10-16T13:01:59.717Z,39.10
2018-10-16T13:04:28.130Z,38.10
2018-10-16T13:06:58.895Z,35.90
2018-10-16T13:09:27.377Z,36.00
2018-10-16T13:11:55.869Z,37.70
2018-10-16T13:14:24.351Z,37.80
2018-10-16T13:16:52.954Z,37.70
2018-10-16T13:19:21.297Z,36.60
2018-10-16T13:21:49.812Z,39.70
2018-10-16T13:24:18.248Z,41.00
2018-10-16T13:26:46.698Z,41.80
2018-10-16T13:29:15.240Z,41.60
2018-10-16T13:31:43.699Z,41.90
2018-10-16T13:34:12.227Z,43.30
2018-10-16T13:36:40.723Z,43.10
2018-10-16T13:39:09.367Z,46.40
2018-10-16T13:41:37.854Z,45.60
2018-10-16T13:44:06.335Z,45.10
2018-10-16T13:46:34.810Z,45.20
2018-10-16T13:49:03.273Z,44.80
2018-10-16T13:51:31.721Z,45.30
2018-10-16T13:54:00.189Z,43.10
2018-10-16T13:56:28.645Z,43.40
2018-10-16T13:58:57.136Z,44.00
2018-10-16T14:01:25.611Z,42.40
2018-10-16T14:03:54.125Z,41.50
2018-10-16T14:06:22.602Z,42.50
2018-10-16T14:08:51.020Z,42.70
2018-10-16T14:11:19.521Z,43.80
2018-10-16T14:13:47.984Z,43.80
2018-10-16T14:16:16.510Z,43.90
2018-10-16T14:18:44.951Z,44.30
2018-10-16T14:21:13.391Z,43.50
2018-10-16T14:23:41.837Z,44.50
2018-10-16T14:26:10.303Z,44.10
2018-10-16T14:28:38.746Z,45.70
2018-10-16T14:31:07.282Z,45.80
2018-10-16T14:33:35.749Z,46.90
2018-10-16T14:36:04.215Z,46.50
2018-10-16T14:38:32.704Z,47.80
2018-10-16T14:41:01.200Z,46.80
2018-10-16T14:43:29.793Z,46.50
2018-10-16T14:45:58.244Z,46.00
2018-10-16T14:48:26.698Z,46.90
2018-10-16T14:50:55.196Z,48.50
2018-10-16T14:53:23.820Z,46.80
2018-10-16T14:55:52.294Z,47.10
2018-10-16T14:58:20.761Z,47.20
2018-10-16T15:00:49.223Z,48.80
2018-10-16T15:03:17.766Z,47.70
2018-10-16T15:05:46.198Z,48.00
2018-10-16T15:08:14.726Z,47.90
2018-10-16T15:10:43.142Z,48.10
2018-10-16T15:13:11.598Z,48.30
2018-10-16T15:15:40.088Z,48.10
2018-10-16T15:18:08.522Z,48.00
2018-10-16T15:20:37.008Z,48.10
2018-10-16T15:23:05.454Z,50.00
2018-10-16T15:25:33.889Z,49.80
2018-10-16T15:28:02.373Z,49.70
2018-10-16T15:30:30.800Z,50.60
2018-10-16T15:32:59.298Z,50.70
2018-10-16T15:35:27.794Z,51.20
2018-10-16T15:37:56.293Z,51.60
2018-10-16T15:40:24.783Z,55.20
2018-10-16T15:42:53.262Z,58.20
2018-10-16T15:45:21.716Z,60.00
2018-10-16T15:47:50.183Z,61.30
2018-10-16T15:50:18.623Z,61.30
2018-10-16T15:52:48.451Z,63.40
2018-10-16T15:55:16.904Z,64.60
2018-10-16T15:57:45.364Z,66.10
2018-10-16T16:00:15.358Z,66.10
2018-10-16T16:02:43.861Z,68.10
2018-10-16T16:05:12.361Z,66.70
2018-10-16T16:07:41.016Z,68.90
2018-10-16T16:10:11.739Z,69.50
2018-10-16T16:12:40.256Z,71.60
2018-10-16T16:15:09.974Z,73.30
2018-10-16T16:17:38.461Z,71.50
2018-10-16T16:20:08.361Z,74.50
2018-10-16T16:22:36.953Z,76.50
2018-10-16T16:25:07.274Z,77.30
2018-10-16T16:27:35.964Z,77.70
2018-10-16T16:30:05.566Z,78.60
2018-10-16T16:32:33.996Z,79.20
2018-10-16T16:35:02.585Z,79.20
2018-10-16T16:37:31.004Z,78.90
2018-10-16T16:39:59.528Z,79.00
2018-10-16T16:42:28.135Z,79.40
2018-10-16T16:44:57.560Z,78.70
2018-10-16T16:47:26.123Z,79.20
2018-10-16T16:49:54.904Z,79.60
2018-10-16T16:52:23.465Z,81.50
2018-10-16T16:54:52.072Z,82.20
2018-10-16T16:57:20.730Z,82.40
2018-10-16T16:59:49.258Z,82.60
2018-10-16T17:02:17.858Z,82.60
2018-10-16T17:04:46.690Z,82.80
2018-10-16T17:07:15.534Z,83.90
2018-10-16T17:09:44.120Z,84.30
2018-10-16T17:12:12.718Z,85.40
2018-10-16T17:14:41.532Z,85.20
2018-10-16T17:17:10.313Z,85.30
2018-10-16T17:19:38.987Z,85.60
2018-10-16T17:22:08.204Z,85.60
2018-10-16T17:24:36.934Z,86.10
2018-10-16T17:27:05.749Z,87.00
2018-10-16T17:29:37.636Z,87.40
2018-10-16T17:32:06.491Z,87.30
2018-10-16T17:34:36.619Z,86.60
2018-10-16T17:37:05.896Z,86.50
2018-10-16T17:39:35.838Z,87.00
2018-10-16T17:42:04.645Z,87.80
2018-10-16T17:44:33.745Z,88.00
2018-10-16T17:47:03.828Z,87.90
2018-10-16T17:49:33.276Z,87.60
2018-10-16T17:52:02.685Z,87.20
2018-10-16T17:54:31.879Z,86.80
2018-10-16T17:57:00.924Z,86.80
2018-10-16T17:59:30.217Z,87.10
2018-10-16T18:02:00.313Z,87.20
2018-10-16T18:04:29.761Z,87.90
2018-10-16T18:06:59.017Z,88.20
2018-10-16T18:09:28.785Z,88.30
2018-10-16T18:11:58.093Z,88.10
2018-10-16T18:14:29.014Z,88.10
2018-10-16T18:16:58.786Z,88.50
2018-10-16T18:19:28.599Z,89.00
2018-10-16T18:21:58.025Z,89.50
2018-10-16T18:24:27.095Z,89.70
2018-10-16T18:26:56.644Z,89.30
2018-10-16T18:29:26.004Z,89.70
2018-10-16T18:31:55.413Z,89.80
2018-10-16T18:34:25.369Z,90.10
2018-10-16T18:36:57.195Z,90.20
2018-10-16T18:39:27.220Z,90.10
2018-10-16T18:41:57.047Z,90.10
2018-10-16T18:44:26.498Z,90.60
2018-10-16T18:47:00.848Z,91.00
2018-10-16T18:51:59.150Z,90.80
2018-10-16T18:54:28.898Z,90.40
2018-10-16T18:56:58.259Z,90.60
2018-10-16T18:59:28.202Z,90.80
2018-10-16T19:01:57.591Z,90.90
2018-10-16T19:04:28.188Z,90.50
2018-10-16T19:06:57.863Z,90.60
2018-10-16T19:09:28.037Z,90.60
2018-10-16T19:11:57.491Z,90.30
2018-10-16T19:14:26.971Z,89.80
2018-10-16T19:19:24.723Z,90.00
2018-10-16T19:21:54.754Z,91.10
2018-10-16T19:24:25.116Z,91.00
2018-10-16T19:26:55.270Z,90.60
2018-10-16T19:29:25.149Z,90.60
2018-10-16T19:31:54.553Z,90.60
2018-10-16T19:34:24.452Z,90.60
2018-10-16T19:39:22.776Z,90.50
2018-10-16T19:41:52.332Z,91.50
2018-10-16T19:44:22.851Z,91.80
2018-10-16T19:46:55.100Z,91.40
2018-10-16T19:49:24.768Z,91.10
2018-10-16T19:51:54.023Z,90.90
2018-10-16T19:54:23.510Z,91.00
2018-10-16T19:56:54.609Z,91.40
2018-10-16T19:59:26.366Z,91.30
2018-10-16T20:01:56.912Z,91.30
2018-10-16T20:04:26.182Z,91.40
2018-10-16T20:06:55.491Z,91.40
2018-10-16T20:09:24.910Z,91.00
2018-10-16T20:11:54.181Z,91.10
2018-10-16T20:14:24.033Z,91.00
2018-10-16T20:16:53.420Z,91.10
2018-10-16T20:19:22.712Z,91.00
2018-10-16T20:21:53.044Z,90.80
2018-10-16T20:24:22.397Z,90.90
2018-10-16T20:26:53.281Z,91.00
2018-10-16T20:29:22.280Z,91.10
2018-10-16T20:31:51.292Z,91.20
2018-10-16T20:34:20.538Z,91.40
2018-10-16T20:36:49.544Z,92.10
2018-10-16T20:39:18.459Z,91.90
2018-10-16T20:41:47.777Z,91.90
2018-10-16T20:44:17.233Z,91.90
2018-10-16T20:46:46.535Z,91.90
2018-10-16T20:49:16.480Z,92.10
2018-10-16T20:51:45.697Z,91.90
2018-10-16T20:54:14.925Z,91.50
2018-10-16T20:56:43.963Z,91.30
2018-10-16T20:59:13.531Z,91.20
2018-10-16T21:01:42.248Z,91.20
2018-10-16T21:04:12.669Z,91.20
2018-10-16T21:06:41.520Z,91.20
2018-10-16T21:09:09.918Z,91.80
2018-10-16T21:11:39.349Z,92.10
2018-10-16T21:14:07.854Z,92.00
2018-10-16T21:16:36.412Z,91.80
2018-10-16T21:19:05.008Z,91.60
2018-10-16T21:21:33.504Z,91.40
2018-10-16T21:24:02.195Z,91.20
2018-10-16T21:26:30.805Z,91.10
2018-10-16T21:28:59.820Z,91.10
2018-10-16T21:31:28.350Z,91.20
2018-10-16T21:33:56.897Z,91.40
2018-10-16T21:36:25.345Z,91.70
2018-10-16T21:38:53.965Z,91.60
2018-10-16T21:41:22.552Z,91.50
2018-10-16T21:43:51.105Z,91.50
2018-10-16T21:46:19.993Z,91.20
2018-10-16T21:48:48.451Z,91.00
2018-10-16T21:51:17.503Z,91.20
2018-10-16T21:53:46.056Z,91.20
2018-10-16T21:56:14.630Z,91.20
2018-10-16T21:58:43.671Z,91.30
2018-10-16T22:01:12.839Z,91.30
2018-10-16T22:03:41.352Z,91.20
2018-10-16T22:06:09.842Z,91.00
2018-10-16T22:08:38.977Z,91.10
2018-10-16T22:11:07.620Z,91.60
2018-10-16T22:13:36.041Z,91.40
2018-10-16T22:16:04.605Z,91.70
2018-10-16T22:18:33.233Z,91.70
2018-10-16T22:21:01.762Z,91.60
2018-10-16T22:23:30.214Z,91.30
2018-10-16T22:25:58.731Z,91.10
2018-10-16T22:28:27.341Z,91.00
2018-10-16T22:30:55.816Z,91.00
2018-10-16T22:33:24.202Z,91.20
2018-10-16T22:35:53.097Z,91.30
2018-10-16T22:38:21.618Z,91.60
2018-10-16T22:40:50.053Z,92.10
2018-10-16T22:43:18.489Z,91.80
2018-10-16T22:45:46.916Z,91.60
2018-10-16T22:48:15.333Z,91.60
2018-10-16T22:50:43.951Z,91.50
2018-10-16T22:53:12.432Z,91.70
2018-10-16T22:55:40.832Z,91.60
2018-10-16T22:58:09.310Z,91.80
2018-10-16T23:00:37.845Z,92.20
2018-10-16T23:03:06.595Z,92.10
2018-10-16T23:05:35.100Z,92.20
2018-10-16T23:08:03.722Z,91.60
2018-10-16T23:10:32.130Z,92.10
2018-10-16T23:13:04.879Z,92.20
2018-10-16T23:15:33.390Z,91.60
2018-10-16T23:18:02.192Z,91.60
2018-10-16T23:20:31.095Z,91.60
2018-10-16T23:22:59.566Z,91.80
2018-10-16T23:25:28.084Z,91.70
2018-10-16T23:27:56.673Z,91.40
2018-10-16T23:30:25.166Z,91.30
2018-10-16T23:32:54.020Z,91.20
2018-10-16T23:35:22.465Z,91.30
2018-10-16T23:37:50.922Z,91.40
2018-10-16T23:40:20.405Z,91.40
2018-10-16T23:42:49.726Z,91.60
2018-10-16T23:45:18.182Z,91.70
2018-10-16T23:47:46.628Z,91.90
2018-10-16T23:50:15.168Z,92.30
2018-10-16T23:52:43.580Z,92.30
2018-10-16T23:55:12.238Z,92.10
2018-10-16T23:57:40.590Z,91.80
